createdAt,value
2017-11-20T00:00:02.842Z,0
2017-11-20T00:01:11.671Z,0
2017-11-20T00:02:20.507Z,0
2017-11-20T00:03:29.319Z,0
2017-11-20T00:04:38.575Z,0
2017-11-20T00:05:47.406Z,0
2017-11-20T00:06:56.224Z,0
2017-11-20T00:08:05.050Z,0
2017-11-20T00:09:13.873Z,0
2017-11-20T00:10:22.750Z,0
2017-11-20T00:11:31.573Z,0
2017-11-20T00:12:40.401Z,0
2017-11-20T00:13:49.229Z,0
2017-11-20T00:14:58.054Z,0
2017-11-20T00:16:06.930Z,0
2017-11-20T00:17:15.755Z,0
2017-11-20T00:18:24.862Z,0
2017-11-20T00:19:33.687Z,0
2017-11-20T00:20:42.515Z,0
2017-11-20T00:21:51.339Z,0
2017-11-20T00:23:00.167Z,0
2017-11-20T00:24:08.990Z,0
2017-11-20T00:25:17.819Z,0
2017-11-20T00:26:26.644Z,0
2017-11-20T00:27:35.472Z,0
2017-11-20T00:28:44.586Z,0
2017-11-20T00:29:53.426Z,0
2017-11-20T00:31:02.546Z,0
2017-11-20T00:32:11.371Z,0
2017-11-20T00:33:20.396Z,0
2017-11-20T00:34:29.219Z,0
2017-11-20T00:35:38.044Z,0
2017-11-20T00:36:46.876Z,0
2017-11-20T00:37:55.695Z,0
2017-11-20T00:39:04.521Z,0
2017-11-20T00:40:13.346Z,0
2017-11-20T00:41:22.448Z,0
2017-11-20T00:42:31.276Z,0
2017-11-20T00:43:40.102Z,0
2017-11-20T00:44:48.977Z,0
2017-11-20T00:45:57.807Z,0
2017-11-20T00:47:06.912Z,0
2017-11-20T00:48:15.737Z,0
2017-11-20T00:49:24.569Z,0
2017-11-20T00:50:33.497Z,0
2017-11-20T00:51:42.321Z,0
2017-11-20T00:52:51.423Z,0
2017-11-20T00:54:00.249Z,0
2017-11-20T00:55:09.072Z,0
2017-11-20T00:56:18.047Z,0
2017-11-20T00:57:27.155Z,0
2017-11-20T00:58:35.979Z,0
2017-11-20T00:59:44.802Z,0
2017-11-20T01:00:53.627Z,0
2017-11-20T01:02:02.602Z,0
2017-11-20T01:03:11.707Z,0
2017-11-20T01:04:20.535Z,0
2017-11-20T01:05:29.359Z,0
2017-11-20T01:06:38.186Z,0
2017-11-20T01:07:47.336Z,0
2017-11-20T01:08:56.162Z,0
2017-11-20T01:10:04.988Z,0
2017-11-20T01:11:13.812Z,0
2017-11-20T01:12:22.638Z,0
2017-11-20T01:13:31.564Z,0
2017-11-20T01:14:40.393Z,0
2017-11-20T01:15:49.214Z,0
2017-11-20T01:16:58.042Z,0
2017-11-20T01:18:07.144Z,0
2017-11-20T01:19:16.067Z,0
2017-11-20T01:20:24.891Z,0
2017-11-20T01:21:33.715Z,0
2017-11-20T01:22:42.820Z,0
2017-11-20T01:23:51.643Z,0
2017-11-20T01:25:00.779Z,0
2017-11-20T01:26:09.636Z,0
2017-11-20T01:27:18.419Z,0
2017-11-20T01:28:27.246Z,0
2017-11-20T01:29:36.069Z,0
2017-11-20T01:30:44.892Z,0
2017-11-20T01:31:53.715Z,0
2017-11-20T01:33:02.821Z,0
2017-11-20T01:34:11.929Z,0
2017-11-20T01:35:20.757Z,0
2017-11-20T01:36:29.778Z,0
2017-11-20T01:37:38.603Z,0
2017-11-20T01:38:47.427Z,0
2017-11-20T01:39:56.252Z,0
2017-11-20T01:41:05.086Z,0
2017-11-20T01:42:14.488Z,0
2017-11-20T01:43:23.313Z,0
2017-11-20T01:44:32.139Z,0
2017-11-20T01:45:40.966Z,0
2017-11-20T01:46:49.789Z,0
2017-11-20T01:47:58.868Z,0
2017-11-20T01:49:07.691Z,0
2017-11-20T01:50:16.792Z,0
2017-11-20T01:51:25.616Z,0
2017-11-20T01:52:34.443Z,0
2017-11-20T01:53:43.619Z,0
2017-11-20T01:54:52.445Z,0
2017-11-20T01:56:01.270Z,0
2017-11-20T01:57:10.093Z,0
2017-11-20T01:58:18.921Z,0
2017-11-20T01:59:27.751Z,0
2017-11-20T02:00:36.575Z,0
2017-11-20T02:01:45.404Z,0
2017-11-20T02:02:54.517Z,0
2017-11-20T02:04:03.347Z,0
2017-11-20T02:05:12.219Z,0
2017-11-20T02:06:21.045Z,0
2017-11-20T02:07:29.870Z,0
2017-11-20T02:08:38.694Z,0
2017-11-20T02:09:47.521Z,0
2017-11-20T02:10:56.446Z,0
2017-11-20T02:12:05.273Z,0
2017-11-20T02:13:14.098Z,0
2017-11-20T02:14:22.924Z,0
2017-11-20T02:15:31.755Z,0
2017-11-20T02:16:40.882Z,0
2017-11-20T02:17:49.712Z,0
2017-11-20T02:18:58.538Z,0
2017-11-20T02:20:07.367Z,0
2017-11-20T02:21:16.193Z,0
2017-11-20T02:22:25.069Z,0
2017-11-20T02:23:33.896Z,0
2017-11-20T02:24:42.775Z,0
2017-11-20T02:25:51.875Z,0
2017-11-20T02:27:00.700Z,0
2017-11-20T02:28:09.624Z,0
2017-11-20T02:29:18.452Z,0
2017-11-20T02:30:27.278Z,0
2017-11-20T02:31:36.101Z,0
2017-11-20T02:32:44.977Z,0
2017-11-20T02:33:54.138Z,0
2017-11-20T02:35:02.911Z,0
2017-11-20T02:36:12.018Z,0
2017-11-20T02:37:21.120Z,0
2017-11-20T02:38:29.948Z,0
2017-11-20T02:39:38.827Z,0
2017-11-20T02:40:47.647Z,0
2017-11-20T02:41:56.496Z,0
2017-11-20T02:43:05.325Z,0
2017-11-20T02:44:14.148Z,0
2017-11-20T02:45:23.127Z,0
2017-11-20T02:46:31.956Z,0
2017-11-20T02:47:40.779Z,0
2017-11-20T02:48:50.161Z,0
2017-11-20T02:49:58.989Z,0
2017-11-20T02:51:07.914Z,0
2017-11-20T02:52:16.740Z,0
2017-11-20T02:53:25.565Z,0
2017-11-20T02:54:34.394Z,0
2017-11-20T02:55:43.217Z,0
2017-11-20T02:56:52.097Z,0
2017-11-20T02:58:00.934Z,0
2017-11-20T02:59:09.760Z,0
2017-11-20T03:00:18.586Z,0
2017-11-20T03:01:27.410Z,0
2017-11-20T03:02:36.294Z,0
2017-11-20T03:03:45.113Z,0
2017-11-20T03:04:53.939Z,0
2017-11-20T03:06:02.765Z,0
2017-11-20T03:07:11.590Z,0
2017-11-20T03:08:20.717Z,0
2017-11-20T03:09:29.820Z,0
2017-11-20T03:10:38.700Z,0
2017-11-20T03:11:47.517Z,0
2017-11-20T03:12:56.341Z,0
2017-11-20T03:14:05.320Z,0
2017-11-20T03:15:14.150Z,0
2017-11-20T03:16:22.972Z,0
2017-11-20T03:17:31.794Z,0
2017-11-20T03:18:40.905Z,0
2017-11-20T03:19:49.880Z,0
2017-11-20T03:20:58.707Z,0
2017-11-20T03:22:07.533Z,0
2017-11-20T03:23:16.365Z,0
2017-11-20T03:24:25.182Z,0
2017-11-20T03:25:34.008Z,0
2017-11-20T03:26:42.836Z,0
2017-11-20T03:27:51.664Z,0
2017-11-20T03:29:00.767Z,0
2017-11-20T03:30:09.601Z,0
2017-11-20T03:31:19.005Z,0
2017-11-20T03:32:27.829Z,0
2017-11-20T03:33:36.655Z,0
2017-11-20T03:34:45.484Z,0
2017-11-20T03:35:54.309Z,0
2017-11-20T03:37:03.133Z,0
2017-11-20T03:38:11.959Z,0
2017-11-20T03:39:20.783Z,0
2017-11-20T03:40:29.607Z,0
2017-11-20T03:41:38.434Z,0
2017-11-20T03:42:47.369Z,0
2017-11-20T03:43:56.192Z,0
2017-11-20T03:45:05.017Z,0
2017-11-20T03:46:13.843Z,0
2017-11-20T03:47:22.672Z,0
2017-11-20T03:48:31.498Z,0
2017-11-20T03:49:40.324Z,0
2017-11-20T03:50:49.151Z,0
2017-11-20T03:51:57.983Z,0
2017-11-20T03:53:06.800Z,0
2017-11-20T03:54:15.725Z,0
2017-11-20T03:55:24.550Z,0
2017-11-20T03:56:33.375Z,0
2017-11-20T03:57:42.204Z,0
2017-11-20T03:58:51.030Z,0
2017-11-20T04:00:00.108Z,0
2017-11-20T04:01:08.932Z,0
2017-11-20T04:02:17.757Z,0
2017-11-20T04:03:26.579Z,0
2017-11-20T04:04:35.406Z,0
2017-11-20T04:05:44.230Z,0
2017-11-20T04:06:53.071Z,0
2017-11-20T04:08:01.882Z,0
2017-11-20T04:09:10.707Z,0
2017-11-20T04:10:19.530Z,0
2017-11-20T04:11:28.408Z,0
2017-11-20T04:12:37.231Z,0
2017-11-20T04:13:46.058Z,0
2017-11-20T04:14:54.887Z,0
2017-11-20T04:16:03.710Z,0
2017-11-20T04:17:12.937Z,0
2017-11-20T04:18:21.762Z,0
2017-11-20T04:19:30.585Z,0
2017-11-20T04:20:39.413Z,0
2017-11-20T04:21:48.238Z,0
2017-11-20T04:22:57.215Z,0
2017-11-20T04:24:06.038Z,0
2017-11-20T04:25:14.866Z,0
2017-11-20T04:26:23.688Z,0
2017-11-20T04:27:32.513Z,0
2017-11-20T04:28:41.339Z,0
2017-11-20T04:29:50.165Z,0
2017-11-20T04:30:59.276Z,0
2017-11-20T04:32:08.101Z,0
2017-11-20T04:33:16.925Z,0
2017-11-20T04:34:26.234Z,0
2017-11-20T04:35:35.061Z,0
2017-11-20T04:36:43.888Z,0
2017-11-20T04:37:52.765Z,0
2017-11-20T04:39:01.590Z,0
2017-11-20T04:40:10.801Z,0
2017-11-20T04:41:19.903Z,0
2017-11-20T04:42:28.728Z,0
2017-11-20T04:43:37.555Z,0
2017-11-20T04:44:46.379Z,0
2017-11-20T04:45:55.213Z,0
2017-11-20T04:47:04.030Z,0
2017-11-20T04:48:12.853Z,0
2017-11-20T04:49:21.679Z,0
2017-11-20T04:50:30.509Z,0
2017-11-20T04:51:39.331Z,0
2017-11-20T04:52:48.159Z,0
2017-11-20T04:53:56.982Z,0
2017-11-20T04:55:06.103Z,0
2017-11-20T04:56:14.929Z,0
2017-11-20T04:57:23.854Z,0
2017-11-20T04:58:32.682Z,0
2017-11-20T04:59:41.507Z,0
2017-11-20T05:00:50.331Z,0
2017-11-20T05:01:59.167Z,0
2017-11-20T05:03:08.271Z,0
2017-11-20T05:04:17.095Z,0
2017-11-20T05:05:26.195Z,0
2017-11-20T05:06:35.019Z,0
2017-11-20T05:07:43.843Z,0
2017-11-20T05:08:52.828Z,0
2017-11-20T05:10:01.653Z,0
2017-11-20T05:11:10.480Z,0
2017-11-20T05:12:19.306Z,0
2017-11-20T05:13:28.132Z,0
2017-11-20T05:14:36.955Z,0
2017-11-20T05:15:46.071Z,0
2017-11-20T05:16:54.896Z,0
2017-11-20T05:18:03.727Z,0
2017-11-20T05:19:12.827Z,0
2017-11-20T05:20:21.704Z,0
2017-11-20T05:21:30.538Z,0
2017-11-20T05:22:39.361Z,0
2017-11-20T05:23:48.187Z,0
2017-11-20T05:24:57.017Z,0
2017-11-20T05:26:06.113Z,0
2017-11-20T05:27:14.944Z,0
2017-11-20T05:28:23.770Z,0
2017-11-20T05:29:32.596Z,0
2017-11-20T05:30:41.704Z,0
2017-11-20T05:31:50.953Z,0
2017-11-20T05:32:59.798Z,0
2017-11-20T05:34:08.626Z,0
2017-11-20T05:35:17.451Z,0
2017-11-20T05:36:26.287Z,0
2017-11-20T05:37:35.539Z,0
2017-11-20T05:38:44.366Z,0
2017-11-20T05:39:53.192Z,0
2017-11-20T05:41:02.023Z,0
2017-11-20T05:42:10.845Z,0
2017-11-20T05:43:19.675Z,0
2017-11-20T05:44:28.789Z,0
2017-11-20T05:45:37.613Z,0
2017-11-20T05:46:46.718Z,0
2017-11-20T05:47:55.544Z,0
2017-11-20T05:49:04.470Z,0
2017-11-20T05:50:13.302Z,0
2017-11-20T05:51:22.131Z,0
2017-11-20T05:52:30.957Z,0
2017-11-20T05:53:40.065Z,0
2017-11-20T05:54:49.268Z,0
2017-11-20T05:55:58.094Z,0
2017-11-20T05:57:06.920Z,0
2017-11-20T05:58:15.751Z,0
2017-11-20T05:59:24.571Z,0
2017-11-20T06:00:33.648Z,0
2017-11-20T06:01:42.476Z,0
2017-11-20T06:02:51.301Z,0
2017-11-20T06:04:00.410Z,0
2017-11-20T06:05:09.237Z,0
2017-11-20T06:06:18.165Z,0
2017-11-20T06:07:26.988Z,0
2017-11-20T06:08:35.816Z,0
2017-11-20T06:09:44.644Z,0
2017-11-20T06:10:53.477Z,0
2017-11-20T06:12:02.299Z,0
2017-11-20T06:13:11.124Z,0
2017-11-20T06:14:19.950Z,0
2017-11-20T06:15:28.898Z,0
2017-11-20T06:16:41.471Z,0
2017-11-20T06:17:54.190Z,0
2017-11-20T06:19:03.469Z,0
2017-11-20T06:20:12.298Z,0
2017-11-20T06:21:21.127Z,0
2017-11-20T06:22:29.963Z,0
2017-11-20T06:23:38.782Z,0
2017-11-20T06:24:47.608Z,0
2017-11-20T06:25:56.435Z,0
2017-11-20T06:27:05.264Z,0
2017-11-20T06:28:17.030Z,0
2017-11-20T06:29:28.599Z,0
2017-11-20T06:30:39.358Z,0
2017-11-20T06:31:52.289Z,0
2017-11-20T06:33:02.384Z,0
2017-11-20T06:34:12.659Z,0
2017-11-20T06:35:22.787Z,0
2017-11-20T06:36:32.759Z,0
2017-11-20T06:37:41.873Z,0
2017-11-20T06:38:50.702Z,0
2017-11-20T06:39:59.614Z,0
2017-11-20T06:41:08.425Z,0
2017-11-20T06:42:17.256Z,0
2017-11-20T06:43:26.080Z,0
2017-11-20T06:44:34.907Z,0
2017-11-20T06:45:43.735Z,0
2017-11-20T06:46:52.562Z,0
2017-11-20T06:48:01.388Z,0
2017-11-20T06:49:10.216Z,0
2017-11-20T06:50:19.044Z,0
2017-11-20T06:51:27.873Z,0
2017-11-20T06:52:36.705Z,0
2017-11-20T06:53:45.538Z,0
2017-11-20T06:54:54.352Z,0
2017-11-20T06:56:03.180Z,0
2017-11-20T06:57:12.006Z,0
2017-11-20T06:58:20.838Z,0
2017-11-20T06:59:29.662Z,5
2017-11-20T07:00:38.494Z,5
2017-11-20T07:01:47.313Z,5
2017-11-20T07:02:56.418Z,5
2017-11-20T07:04:05.246Z,5
2017-11-20T07:05:14.073Z,5
2017-11-20T07:06:23.015Z,5
2017-11-20T07:07:31.845Z,5
2017-11-20T07:08:40.950Z,5
2017-11-20T07:09:49.776Z,5
2017-11-20T07:10:58.602Z,5
2017-11-20T07:12:07.530Z,5
2017-11-20T07:13:16.358Z,5
2017-11-20T07:14:25.460Z,5
2017-11-20T07:15:34.286Z,5
2017-11-20T07:16:43.112Z,5
2017-11-20T07:17:52.041Z,5
2017-11-20T07:19:00.868Z,5
2017-11-20T07:20:09.693Z,5
2017-11-20T07:21:18.520Z,5
2017-11-20T07:22:27.345Z,5
2017-11-20T07:23:36.173Z,5
2017-11-20T07:24:45.049Z,5
2017-11-20T07:25:54.024Z,5
2017-11-20T07:27:03.212Z,5
2017-11-20T07:28:12.095Z,5
2017-11-20T07:29:21.226Z,5
2017-11-20T07:30:30.392Z,5
2017-11-20T07:31:39.289Z,10
2017-11-20T07:32:48.700Z,10
2017-11-20T07:33:57.939Z,10
2017-11-20T07:35:07.023Z,15
2017-11-20T07:36:15.849Z,20
2017-11-20T07:37:24.676Z,20
2017-11-20T07:38:33.504Z,20
2017-11-20T07:39:42.330Z,15
2017-11-20T07:40:51.459Z,15
2017-11-20T07:42:00.285Z,15
2017-11-20T07:43:09.114Z,15
2017-11-20T07:44:17.944Z,20
2017-11-20T07:45:26.772Z,15
2017-11-20T07:46:35.651Z,10
2017-11-20T07:47:44.492Z,10
2017-11-20T07:48:53.304Z,15
2017-11-20T07:50:02.135Z,15
2017-11-20T07:51:10.958Z,15
2017-11-20T07:52:19.784Z,20
2017-11-20T07:53:28.611Z,20
2017-11-20T07:54:37.438Z,20
2017-11-20T07:55:46.268Z,20
2017-11-20T07:56:55.093Z,25
2017-11-20T07:58:03.976Z,30
2017-11-20T07:59:12.803Z,30
2017-11-20T08:00:21.910Z,25
2017-11-20T08:01:30.736Z,25
2017-11-20T08:02:39.562Z,25
2017-11-20T08:03:48.541Z,30
2017-11-20T08:04:57.369Z,25
2017-11-20T08:06:06.203Z,25
2017-11-20T08:07:15.300Z,25
2017-11-20T08:08:24.406Z,30
2017-11-20T08:09:33.487Z,30
2017-11-20T08:10:42.314Z,25
2017-11-20T08:11:51.416Z,25
2017-11-20T08:13:00.253Z,25
2017-11-20T08:14:09.362Z,25
2017-11-20T08:15:18.187Z,25
2017-11-20T08:16:27.013Z,25
2017-11-20T08:17:35.846Z,25
2017-11-20T08:18:44.720Z,25
2017-11-20T08:19:53.549Z,30
2017-11-20T08:21:02.473Z,30
2017-11-20T08:22:11.301Z,35
2017-11-20T08:23:20.127Z,40
2017-11-20T08:24:28.955Z,40
2017-11-20T08:25:37.780Z,50
2017-11-20T08:26:46.909Z,60
2017-11-20T08:27:55.731Z,65
2017-11-20T08:29:04.559Z,65
2017-11-20T08:30:13.388Z,65
2017-11-20T08:31:22.215Z,65
2017-11-20T08:32:31.141Z,75
2017-11-20T08:33:39.967Z,85
2017-11-20T08:34:49.073Z,90
2017-11-20T08:35:57.898Z,90
2017-11-20T08:37:06.726Z,85
2017-11-20T08:38:15.653Z,85
2017-11-20T08:39:24.481Z,100
2017-11-20T08:40:33.307Z,95
2017-11-20T08:41:42.133Z,95
2017-11-20T08:42:51.238Z,105
2017-11-20T08:44:00.313Z,100
2017-11-20T08:45:09.141Z,95
2017-11-20T08:46:18.248Z,90
2017-11-20T08:47:27.074Z,90
2017-11-20T08:48:35.900Z,85
2017-11-20T08:49:44.782Z,75
2017-11-20T08:50:53.886Z,75
2017-11-20T08:52:02.737Z,75
2017-11-20T08:53:11.569Z,75
2017-11-20T08:54:20.393Z,65
2017-11-20T08:55:29.220Z,80
2017-11-20T08:56:38.048Z,80
2017-11-20T08:57:46.874Z,65
2017-11-20T08:58:55.703Z,50
2017-11-20T09:00:04.529Z,50
2017-11-20T09:01:13.358Z,45
2017-11-20T09:02:22.186Z,50
2017-11-20T09:03:31.016Z,50
2017-11-20T09:04:39.837Z,60
2017-11-20T09:05:48.664Z,65
2017-11-20T09:06:57.640Z,60
2017-11-20T09:08:06.465Z,80
2017-11-20T09:09:15.292Z,75
2017-11-20T09:10:24.128Z,70
2017-11-20T09:11:32.952Z,70
2017-11-20T09:12:41.927Z,70
2017-11-20T09:13:50.751Z,90
2017-11-20T09:14:59.580Z,85
2017-11-20T09:16:08.406Z,85
2017-11-20T09:17:17.236Z,90
2017-11-20T09:18:26.741Z,100
2017-11-20T09:19:35.568Z,125
2017-11-20T09:20:44.390Z,130
2017-11-20T09:21:53.219Z,120
2017-11-20T09:23:02.045Z,115
2017-11-20T09:24:10.973Z,135
2017-11-20T09:25:19.799Z,125
2017-11-20T09:26:28.626Z,105
2017-11-20T09:27:37.460Z,110
2017-11-20T09:28:46.279Z,115
2017-11-20T09:29:55.156Z,120
2017-11-20T09:31:03.980Z,115
2017-11-20T09:32:12.809Z,125
2017-11-20T09:33:21.635Z,100
2017-11-20T09:34:30.463Z,95
2017-11-20T09:35:39.592Z,85
2017-11-20T09:36:48.417Z,90
2017-11-20T09:37:57.245Z,80
2017-11-20T09:39:06.069Z,90
2017-11-20T09:40:14.896Z,90
2017-11-20T09:41:23.924Z,95
2017-11-20T09:42:32.752Z,90
2017-11-20T09:43:41.578Z,95
2017-11-20T09:44:50.403Z,85
2017-11-20T09:45:59.231Z,95
2017-11-20T09:47:08.158Z,80
2017-11-20T09:48:16.987Z,80
2017-11-20T09:49:26.094Z,80
2017-11-20T09:50:34.924Z,90
2017-11-20T09:51:44.032Z,100
2017-11-20T09:52:53.107Z,90
2017-11-20T09:54:01.932Z,85
2017-11-20T09:55:10.759Z,75
2017-11-20T09:56:19.585Z,65
2017-11-20T09:57:28.415Z,65
2017-11-20T09:58:37.873Z,65
2017-11-20T09:59:46.704Z,60
2017-11-20T10:00:56.106Z,70
2017-11-20T10:02:05.207Z,70
2017-11-20T10:03:14.035Z,65
2017-11-20T10:04:23.014Z,95
2017-11-20T10:05:31.840Z,120
2017-11-20T10:06:40.667Z,140
2017-11-20T10:07:49.495Z,170
2017-11-20T10:08:58.320Z,170
2017-11-20T10:10:07.197Z,170
2017-11-20T10:11:16.027Z,190
2017-11-20T10:12:24.854Z,210
2017-11-20T10:13:33.682Z,180
2017-11-20T10:14:42.509Z,170
2017-11-20T10:15:51.639Z,155
2017-11-20T10:17:00.466Z,160
2017-11-20T10:18:09.294Z,135
2017-11-20T10:19:18.123Z,135
2017-11-20T10:20:26.949Z,100
2017-11-20T10:21:35.877Z,110
2017-11-20T10:22:44.705Z,120
2017-11-20T10:23:53.530Z,125
2017-11-20T10:25:02.356Z,115
2017-11-20T10:26:11.182Z,130
2017-11-20T10:27:20.009Z,150
2017-11-20T10:28:29.134Z,165
2017-11-20T10:29:37.961Z,180
2017-11-20T10:30:46.788Z,190
2017-11-20T10:31:55.897Z,220
2017-11-20T10:33:04.878Z,210
2017-11-20T10:34:13.709Z,215
2017-11-20T10:35:22.542Z,220
2017-11-20T10:36:31.364Z,215
2017-11-20T10:37:40.196Z,210
2017-11-20T10:38:49.266Z,210
2017-11-20T10:39:58.096Z,220
2017-11-20T10:41:06.923Z,205
2017-11-20T10:42:15.749Z,205
2017-11-20T10:43:24.578Z,220
2017-11-20T10:44:33.556Z,230
2017-11-20T10:45:42.381Z,235
2017-11-20T10:46:51.212Z,240
2017-11-20T10:48:00.326Z,240
2017-11-20T10:49:09.156Z,230
2017-11-20T10:50:18.465Z,230
2017-11-20T10:51:27.294Z,215
2017-11-20T10:52:36.121Z,200
2017-11-20T10:53:44.945Z,180
2017-11-20T10:54:53.774Z,180
2017-11-20T10:56:03.040Z,195
2017-11-20T10:57:11.862Z,185
2017-11-20T10:58:20.689Z,205
2017-11-20T10:59:30.137Z,205
2017-11-20T11:00:38.951Z,195
2017-11-20T11:01:47.881Z,170
2017-11-20T11:02:56.708Z,140
2017-11-20T11:04:05.536Z,105
2017-11-20T11:05:14.364Z,90
2017-11-20T11:06:23.202Z,85
2017-11-20T11:07:32.070Z,75
2017-11-20T11:08:40.900Z,65
2017-11-20T11:09:49.729Z,55
2017-11-20T11:10:58.555Z,50
2017-11-20T11:12:07.382Z,50
2017-11-20T11:13:16.458Z,50
2017-11-20T11:14:25.284Z,50
2017-11-20T11:15:34.133Z,45
2017-11-20T11:16:42.943Z,45
2017-11-20T11:17:51.769Z,40
2017-11-20T11:19:00.746Z,45
2017-11-20T11:20:09.574Z,60
2017-11-20T11:21:18.401Z,80
2017-11-20T11:22:27.508Z,105
2017-11-20T11:23:36.627Z,120
2017-11-20T11:24:45.505Z,115
2017-11-20T11:25:54.333Z,140
2017-11-20T11:27:03.157Z,150
2017-11-20T11:28:11.988Z,135
2017-11-20T11:29:20.817Z,100
2017-11-20T11:30:30.123Z,80
2017-11-20T11:31:38.950Z,60
2017-11-20T11:32:47.777Z,50
2017-11-20T11:33:56.886Z,40
2017-11-20T11:35:05.715Z,40
2017-11-20T11:36:16.541Z,45
2017-11-20T11:37:23.670Z,50
2017-11-20T11:38:32.494Z,60
2017-11-20T11:39:41.322Z,75
2017-11-20T11:40:50.440Z,80
2017-11-20T11:41:59.656Z,65
2017-11-20T11:43:09.029Z,75
2017-11-20T11:44:18.161Z,80
2017-11-20T11:45:26.987Z,75
2017-11-20T11:46:35.812Z,75
2017-11-20T11:47:44.761Z,95
2017-11-20T11:48:53.569Z,105
2017-11-20T11:50:02.400Z,120
2017-11-20T11:51:12.221Z,130
2017-11-20T11:52:21.383Z,130
2017-11-20T11:53:30.285Z,125
2017-11-20T11:54:39.383Z,155
2017-11-20T11:55:48.431Z,155
2017-11-20T11:56:57.292Z,145
2017-11-20T11:58:06.604Z,140
2017-11-20T11:59:15.691Z,120
2017-11-20T12:00:24.545Z,110
2017-11-20T12:01:33.627Z,95
2017-11-20T12:02:42.480Z,110
2017-11-20T12:03:51.329Z,100
2017-11-20T12:05:29.939Z,85
2017-11-20T12:06:38.767Z,80
2017-11-20T12:07:47.592Z,70
2017-11-20T12:08:56.736Z,75
2017-11-20T12:10:05.735Z,75
2017-11-20T12:11:14.574Z,85
2017-11-20T12:12:23.463Z,90
2017-11-20T12:13:32.546Z,110
2017-11-20T12:14:41.596Z,110
2017-11-20T12:15:50.515Z,100
2017-11-20T12:16:59.356Z,95
2017-11-20T12:18:08.502Z,80
2017-11-20T12:19:17.558Z,80
2017-11-20T12:20:26.832Z,90
2017-11-20T12:21:35.880Z,110
2017-11-20T12:22:44.998Z,115
2017-11-20T12:23:53.831Z,115
2017-11-20T12:25:02.976Z,90
2017-11-20T12:26:12.345Z,80
2017-11-20T12:27:21.362Z,95
2017-11-20T12:28:30.756Z,85
2017-11-20T12:29:39.904Z,95
2017-11-20T12:30:49.309Z,95
2017-11-20T12:31:58.416Z,95
2017-11-20T12:33:07.562Z,95
2017-11-20T12:34:16.983Z,100
2017-11-20T12:35:25.843Z,90
2017-11-20T12:36:34.734Z,95
2017-11-20T12:37:43.796Z,95
2017-11-20T12:38:52.642Z,105
2017-11-20T12:40:02.007Z,95
2017-11-20T12:41:11.370Z,85
2017-11-20T12:42:20.425Z,85
2017-11-20T12:43:29.299Z,70
2017-11-20T12:44:38.125Z,80
2017-11-20T12:45:46.957Z,105
2017-11-20T12:46:56.076Z,100
2017-11-20T12:48:04.903Z,95
2017-11-20T12:49:13.736Z,85
2017-11-20T12:50:22.562Z,90
2017-11-20T12:51:31.391Z,95
2017-11-20T12:52:40.217Z,80
2017-11-20T12:53:49.053Z,75
2017-11-20T12:54:57.873Z,90
2017-11-20T12:56:06.868Z,70
2017-11-20T12:57:15.989Z,60
2017-11-20T12:58:24.817Z,75
2017-11-20T12:59:33.645Z,75
2017-11-20T13:00:42.478Z,75
2017-11-20T13:01:51.454Z,75
2017-11-20T13:03:00.276Z,50
2017-11-20T13:04:09.105Z,60
2017-11-20T13:05:18.210Z,55
2017-11-20T13:06:27.039Z,55
2017-11-20T13:07:36.063Z,65
2017-11-20T13:08:44.892Z,75
2017-11-20T13:09:53.717Z,75
2017-11-20T13:11:02.545Z,80
2017-11-20T13:12:11.371Z,70
2017-11-20T13:13:20.498Z,85
2017-11-20T13:14:29.610Z,85
2017-11-20T13:15:38.439Z,75
2017-11-20T13:16:47.548Z,75
2017-11-20T13:17:56.659Z,70
2017-11-20T13:19:05.739Z,70
2017-11-20T13:20:14.564Z,70
2017-11-20T13:21:23.392Z,75
2017-11-20T13:22:32.236Z,85
2017-11-20T13:23:41.045Z,90
2017-11-20T13:24:50.074Z,80
2017-11-20T13:25:58.902Z,70
2017-11-20T13:27:07.730Z,60
2017-11-20T13:28:16.565Z,55
2017-11-20T13:29:25.399Z,45
2017-11-20T13:30:34.372Z,55
2017-11-20T13:31:43.197Z,75
2017-11-20T13:32:52.029Z,90
2017-11-20T13:34:00.851Z,95
2017-11-20T13:35:09.684Z,105
2017-11-20T13:36:18.509Z,65
2017-11-20T13:37:27.335Z,55
2017-11-20T13:38:36.165Z,60
2017-11-20T13:39:44.988Z,55
2017-11-20T13:40:53.836Z,40
2017-11-20T13:42:02.647Z,40
2017-11-20T13:43:11.473Z,35
2017-11-20T13:44:20.306Z,40
2017-11-20T13:45:29.128Z,45
2017-11-20T13:46:37.958Z,50
2017-11-20T13:47:46.887Z,45
2017-11-20T13:48:55.718Z,45
2017-11-20T13:50:04.546Z,40
2017-11-20T13:51:13.372Z,35
2017-11-20T13:52:22.203Z,35
2017-11-20T13:53:31.031Z,40
2017-11-20T13:54:39.856Z,40
2017-11-20T13:55:48.685Z,45
2017-11-20T13:56:57.513Z,50
2017-11-20T13:58:06.343Z,45
2017-11-20T13:59:15.221Z,45
2017-11-20T14:00:24.049Z,45
2017-11-20T14:01:33.162Z,45
2017-11-20T14:02:41.988Z,40
2017-11-20T14:03:50.819Z,40
2017-11-20T14:04:59.746Z,35
2017-11-20T14:06:08.575Z,35
2017-11-20T14:07:17.402Z,35
2017-11-20T14:08:26.228Z,40
2017-11-20T14:09:35.065Z,40
2017-11-20T14:10:44.262Z,30
2017-11-20T14:11:53.089Z,20
2017-11-20T14:13:01.918Z,15
2017-11-20T14:14:10.745Z,15
2017-11-20T14:15:19.569Z,20
2017-11-20T14:16:28.571Z,20
2017-11-20T14:17:37.398Z,25
2017-11-20T14:18:46.238Z,25
2017-11-20T14:19:55.069Z,30
2017-11-20T14:21:03.891Z,35
2017-11-20T14:22:12.720Z,35
2017-11-20T14:23:21.548Z,40
2017-11-20T14:24:30.662Z,45
2017-11-20T14:25:39.769Z,40
2017-11-20T14:26:48.875Z,40
2017-11-20T14:27:58.005Z,45
2017-11-20T14:29:06.828Z,45
2017-11-20T14:30:15.657Z,40
2017-11-20T14:31:24.482Z,30
2017-11-20T14:32:33.311Z,30
2017-11-20T14:33:42.140Z,35
2017-11-20T14:34:50.964Z,30
2017-11-20T14:35:59.793Z,35
2017-11-20T14:37:08.627Z,35
2017-11-20T14:38:17.453Z,35
2017-11-20T14:39:26.330Z,40
2017-11-20T14:40:35.177Z,40
2017-11-20T14:41:44.006Z,35
2017-11-20T14:42:53.139Z,35
2017-11-20T14:44:01.966Z,35
2017-11-20T14:45:11.781Z,30
2017-11-20T14:46:20.644Z,30
2017-11-20T14:47:29.473Z,30
2017-11-20T14:48:38.302Z,25
2017-11-20T14:49:47.134Z,25
2017-11-20T14:50:56.110Z,20
2017-11-20T14:52:04.940Z,20
2017-11-20T14:53:13.769Z,20
2017-11-20T14:54:22.602Z,20
2017-11-20T14:55:31.716Z,20
2017-11-20T14:56:40.869Z,15
2017-11-20T14:57:49.698Z,15
2017-11-20T14:58:58.525Z,15
2017-11-20T15:00:07.352Z,15
2017-11-20T15:01:16.179Z,10
2017-11-20T15:02:25.305Z,10
2017-11-20T15:03:34.133Z,10
2017-11-20T15:04:42.959Z,10
2017-11-20T15:05:51.786Z,5
2017-11-20T15:07:00.613Z,5
2017-11-20T15:08:09.590Z,5
2017-11-20T15:09:18.420Z,5
2017-11-20T15:10:27.537Z,5
2017-11-20T15:11:36.364Z,5
2017-11-20T15:12:45.194Z,5
2017-11-20T15:13:54.024Z,5
2017-11-20T15:15:02.864Z,5
2017-11-20T15:16:11.696Z,5
2017-11-20T15:17:20.530Z,5
2017-11-20T15:18:29.358Z,5
2017-11-20T15:19:38.184Z,5
2017-11-20T15:20:47.013Z,5
2017-11-20T15:21:55.839Z,5
2017-11-20T15:23:04.668Z,0
2017-11-20T15:24:13.494Z,0
2017-11-20T15:25:22.318Z,0
2017-11-20T15:26:31.146Z,0
2017-11-20T15:27:39.972Z,0
2017-11-20T15:28:48.801Z,0
2017-11-20T15:29:57.634Z,0
2017-11-20T15:31:06.452Z,0
2017-11-20T15:32:15.281Z,0
2017-11-20T15:33:24.107Z,0
2017-11-20T15:34:32.935Z,0
2017-11-20T15:35:42.044Z,0
2017-11-20T15:36:50.868Z,0
2017-11-20T15:37:59.692Z,0
2017-11-20T15:39:08.573Z,0
2017-11-20T15:40:17.401Z,0
2017-11-20T15:41:26.508Z,0
2017-11-20T15:42:35.335Z,0
2017-11-20T15:43:44.161Z,0
2017-11-20T15:44:53.317Z,0
2017-11-20T15:46:02.142Z,0
2017-11-20T15:47:10.969Z,0
2017-11-20T15:48:19.796Z,0
2017-11-20T15:49:28.624Z,0
2017-11-20T15:50:37.450Z,0
2017-11-20T15:51:46.278Z,0
2017-11-20T15:52:55.105Z,0
2017-11-20T15:54:03.933Z,0
2017-11-20T15:55:12.782Z,0
2017-11-20T15:56:21.716Z,0
2017-11-20T15:57:30.538Z,0
2017-11-20T15:58:39.649Z,0
2017-11-20T15:59:48.476Z,0
2017-11-20T16:00:57.313Z,0
2017-11-20T16:02:06.286Z,0
2017-11-20T16:03:15.110Z,0
2017-11-20T16:04:23.941Z,0
2017-11-20T16:05:32.767Z,0
2017-11-20T16:06:41.597Z,0
2017-11-20T16:07:50.476Z,0
2017-11-20T16:08:59.602Z,0
2017-11-20T16:10:08.705Z,0
2017-11-20T16:11:17.535Z,0
2017-11-20T16:12:26.360Z,0
2017-11-20T16:13:35.187Z,0
2017-11-20T16:14:44.297Z,0
2017-11-20T16:15:53.129Z,0
2017-11-20T16:17:01.958Z,0
2017-11-20T16:18:10.786Z,0
2017-11-20T16:19:19.667Z,0
2017-11-20T16:20:28.776Z,0
2017-11-20T16:21:37.880Z,0
2017-11-20T16:22:46.715Z,0
2017-11-20T16:23:55.535Z,0
2017-11-20T16:25:04.364Z,0
2017-11-20T16:26:13.190Z,0
2017-11-20T16:27:22.019Z,0
2017-11-20T16:28:30.849Z,0
2017-11-20T16:29:39.674Z,0
2017-11-20T16:30:48.802Z,0
2017-11-20T16:31:57.631Z,0
2017-11-20T16:33:06.733Z,0
2017-11-20T16:34:15.561Z,0
2017-11-20T16:35:24.388Z,0
2017-11-20T16:36:33.366Z,0
2017-11-20T16:37:42.190Z,0